sensor_id;sensor_type;location;lat;lon;timestamp;P1;durP1;ratioP1;P2;durP2;ratioP2
19193;SDS011;9729;52.296;13.260;2023-12-20T00:01:58;14.90;;;9.77;;
19193;SDS011;9729;52.296;13.260;2023-12-20T00:04:24;12.70;;;10.30;;
19193;SDS011;9729;52.296;13.260;2023-12-20T00:06:50;18.57;;;11.17;;
19193;SDS011;9729;52.296;13.260;2023-12-20T00:09:17;13.43;;;10.03;;
19193;SDS011;9729;52.296;13.260;2023-12-20T00:11:43;15.17;;;11.10;;
19193;SDS011;9729;52.296;13.260;2023-12-20T00:14:11;12.27;;;10.10;;
19193;SDS011;9729;52.296;13.260;2023-12-20T00:16:37;14.33;;;10.57;;
19193;SDS011;9729;52.296;13.260;2023-12-20T00:19:03;11.13;;;9.47;;
19193;SDS011;9729;52.296;13.260;2023-12-20T00:21:30;12.13;;;8.83;;
19193;SDS011;9729;52.296;13.260;2023-12-20T00:23:56;15.23;;;11.03;;
19193;SDS011;9729;52.296;13.260;2023-12-20T00:26:22;13.20;;;9.80;;
19193;SDS011;9729;52.296;13.260;2023-12-20T00:28:50;13.93;;;10.27;;
19193;SDS011;9729;52.296;13.260;2023-12-20T00:31:17;13.37;;;10.00;;
19193;SDS011;9729;52.296;13.260;2023-12-20T00:33:44;14.07;;;8.83;;
19193;SDS011;9729;52.296;13.260;2023-12-20T00:36:12;14.67;;;10.10;;
19193;SDS011;9729;52.296;13.260;2023-12-20T00:38:38;14.83;;;10.73;;
19193;SDS011;9729;52.296;13.260;2023-12-20T00:41:04;14.23;;;10.57;;
19193;SDS011;9729;52.296;13.260;2023-12-20T00:43:31;12.33;;;9.80;;
19193;SDS011;9729;52.296;13.260;2023-12-20T00:45:57;12.57;;;9.40;;
19193;SDS011;9729;52.296;13.260;2023-12-20T00:48:26;13.77;;;9.40;;
19193;SDS011;9729;52.296;13.260;2023-12-20T00:50:53;13.53;;;10.20;;
19193;SDS011;9729;52.296;13.260;2023-12-20T00:53:19;14.67;;;10.60;;
19193;SDS011;9729;52.296;13.260;2023-12-20T00:55:46;13.10;;;10.43;;
19193;SDS011;9729;52.296;13.260;2023-12-20T00:58:12;15.03;;;11.20;;
19193;SDS011;9729;52.296;13.260;2023-12-20T01:00:40;14.30;;;10.30;;
19193;SDS011;9729;52.296;13.260;2023-12-20T01:03:07;12.63;;;9.43;;
19193;SDS011;9729;52.296;13.260;2023-12-20T01:05:34;13.40;;;9.97;;
19193;SDS011;9729;52.296;13.260;2023-12-20T01:08:01;13.20;;;9.93;;
19193;SDS011;9729;52.296;13.260;2023-12-20T01:10:28;13.47;;;9.30;;
19193;SDS011;9729;52.296;13.260;2023-12-20T01:12:54;14.23;;;11.00;;
19193;SDS011;9729;52.296;13.260;2023-12-20T01:15:21;12.80;;;10.20;;
19193;SDS011;9729;52.296;13.260;2023-12-20T01:17:48;12.27;;;9.63;;
19193;SDS011;9729;52.296;13.260;2023-12-20T01:20:14;11.43;;;8.33;;
19193;SDS011;9729;52.296;13.260;2023-12-20T01:22:42;14.40;;;11.03;;
19193;SDS011;9729;52.296;13.260;2023-12-20T01:25:10;14.33;;;10.57;;
19193;SDS011;9729;52.296;13.260;2023-12-20T01:27:37;13.67;;;9.83;;
19193;SDS011;9729;52.296;13.260;2023-12-20T01:30:04;13.37;;;9.97;;
19193;SDS011;9729;52.296;13.260;2023-12-20T01:32:31;12.97;;;9.73;;
19193;SDS011;9729;52.296;13.260;2023-12-20T01:34:57;14.03;;;9.67;;
19193;SDS011;9729;52.296;13.260;2023-12-20T01:37:23;12.73;;;9.83;;
19193;SDS011;9729;52.296;13.260;2023-12-20T01:39:51;14.50;;;10.37;;
19193;SDS011;9729;52.296;13.260;2023-12-20T01:42:18;15.60;;;9.83;;
19193;SDS011;9729;52.296;13.260;2023-12-20T01:44:44;12.57;;;9.90;;
19193;SDS011;9729;52.296;13.260;2023-12-20T01:47:10;14.63;;;9.90;;
19193;SDS011;9729;52.296;13.260;2023-12-20T01:49:38;13.40;;;9.33;;
19193;SDS011;9729;52.296;13.260;2023-12-20T01:52:05;15.57;;;10.33;;
19193;SDS011;9729;52.296;13.260;2023-12-20T01:54:32;12.80;;;10.20;;
19193;SDS011;9729;52.296;13.260;2023-12-20T01:57:00;12.60;;;9.73;;
19193;SDS011;9729;52.296;13.260;2023-12-20T01:59:26;13.77;;;9.77;;
19193;SDS011;9729;52.296;13.260;2023-12-20T02:01:54;11.20;;;9.17;;
19193;SDS011;9729;52.296;13.260;2023-12-20T02:04:20;13.60;;;9.97;;
19193;SDS011;9729;52.296;13.260;2023-12-20T02:06:46;15.23;;;9.77;;
19193;SDS011;9729;52.296;13.260;2023-12-20T02:09:14;12.33;;;9.77;;
19193;SDS011;9729;52.296;13.260;2023-12-20T02:11:41;10.33;;;8.50;;
19193;SDS011;9729;52.296;13.260;2023-12-20T02:14:08;12.03;;;8.93;;
19193;SDS011;9729;52.296;13.260;2023-12-20T02:16:35;12.50;;;10.13;;
19193;SDS011;9729;52.296;13.260;2023-12-20T02:19:02;13.40;;;10.37;;
19193;SDS011;9729;52.296;13.260;2023-12-20T02:21:32;12.93;;;10.33;;
19193;SDS011;9729;52.296;13.260;2023-12-20T02:23:59;11.73;;;9.77;;
19193;SDS011;9729;52.296;13.260;2023-12-20T02:26:25;14.07;;;9.67;;
19193;SDS011;9729;52.296;13.260;2023-12-20T02:28:52;16.77;;;10.47;;
19193;SDS011;9729;52.296;13.260;2023-12-20T02:31:20;14.90;;;10.63;;
19193;SDS011;9729;52.296;13.260;2023-12-20T02:33:46;16.20;;;10.60;;
19193;SDS011;9729;52.296;13.260;2023-12-20T02:36:13;14.93;;;11.03;;
19193;SDS011;9729;52.296;13.260;2023-12-20T02:38:40;16.57;;;10.63;;
19193;SDS011;9729;52.296;13.260;2023-12-20T02:41:07;15.60;;;10.77;;
19193;SDS011;9729;52.296;13.260;2023-12-20T02:43:33;14.23;;;9.60;;
19193;SDS011;9729;52.296;13.260;2023-12-20T02:45:59;11.77;;;9.77;;
19193;SDS011;9729;52.296;13.260;2023-12-20T02:48:25;11.80;;;9.97;;
19193;SDS011;9729;52.296;13.260;2023-12-20T02:50:52;11.83;;;9.47;;
19193;SDS011;9729;52.296;13.260;2023-12-20T02:53:18;14.27;;;11.00;;
19193;SDS011;9729;52.296;13.260;2023-12-20T02:55:46;11.73;;;9.73;;
19193;SDS011;9729;52.296;13.260;2023-12-20T02:58:12;13.20;;;10.50;;
19193;SDS011;9729;52.296;13.260;2023-12-20T03:00:38;12.47;;;9.60;;
19193;SDS011;9729;52.296;13.260;2023-12-20T03:03:05;11.33;;;9.30;;
19193;SDS011;9729;52.296;13.260;2023-12-20T03:05:31;14.30;;;10.00;;
19193;SDS011;9729;52.296;13.260;2023-12-20T03:07:58;10.70;;;9.23;;
19193;SDS011;9729;52.296;13.260;2023-12-20T03:10:25;10.27;;;8.67;;
19193;SDS011;9729;52.296;13.260;2023-12-20T03:12:52;11.20;;;8.60;;
19193;SDS011;9729;52.296;13.260;2023-12-20T03:15:19;11.50;;;8.93;;
19193;SDS011;9729;52.296;13.260;2023-12-20T03:17:45;11.20;;;8.80;;
19193;SDS011;9729;52.296;13.260;2023-12-20T03:20:11;10.07;;;8.37;;
19193;SDS011;9729;52.296;13.260;2023-12-20T03:22:38;10.30;;;8.20;;
19193;SDS011;9729;52.296;13.260;2023-12-20T03:25:04;9.23;;;8.07;;
19193;SDS011;9729;52.296;13.260;2023-12-20T03:27:31;13.17;;;7.50;;
19193;SDS011;9729;52.296;13.260;2023-12-20T03:29:58;8.27;;;7.33;;
19193;SDS011;9729;52.296;13.260;2023-12-20T03:32:24;12.13;;;7.37;;
19193;SDS011;9729;52.296;13.260;2023-12-20T03:34:51;7.97;;;7.17;;
19193;SDS011;9729;52.296;13.260;2023-12-20T03:37:17;8.73;;;7.33;;
19193;SDS011;9729;52.296;13.260;2023-12-20T03:39:43;6.90;;;6.27;;
19193;SDS011;9729;52.296;13.260;2023-12-20T03:42:10;6.77;;;6.07;;
19193;SDS011;9729;52.296;13.260;2023-12-20T03:44:38;10.63;;;7.67;;
19193;SDS011;9729;52.296;13.260;2023-12-20T03:47:05;8.93;;;6.77;;
19193;SDS011;9729;52.296;13.260;2023-12-20T03:49:32;7.70;;;6.90;;
19193;SDS011;9729;52.296;13.260;2023-12-20T03:51:58;10.40;;;7.47;;
19193;SDS011;9729;52.296;13.260;2023-12-20T03:54:24;7.77;;;6.90;;
19193;SDS011;9729;52.296;13.260;2023-12-20T03:56:51;8.30;;;7.00;;
19193;SDS011;9729;52.296;13.260;2023-12-20T03:59:17;12.63;;;6.70;;
19193;SDS011;9729;52.296;13.260;2023-12-20T04:01:44;7.87;;;6.27;;
19193;SDS011;9729;52.296;13.260;2023-12-20T04:04:12;13.10;;;6.90;;
19193;SDS011;9729;52.296;13.260;2023-12-20T04:06:38;8.23;;;6.30;;
19193;SDS011;9729;52.296;13.260;2023-12-20T04:09:05;8.60;;;5.73;;
19193;SDS011;9729;52.296;13.260;2023-12-20T04:11:31;15.70;;;6.53;;
19193;SDS011;9729;52.296;13.260;2023-12-20T04:13:58;11.20;;;6.63;;
19193;SDS011;9729;52.296;13.260;2023-12-20T04:16:24;8.50;;;6.20;;
19193;SDS011;9729;52.296;13.260;2023-12-20T04:18:50;10.30;;;6.30;;
19193;SDS011;9729;52.296;13.260;2023-12-20T04:21:18;7.83;;;6.03;;
19193;SDS011;9729;52.296;13.260;2023-12-20T04:23:44;11.40;;;5.83;;
19193;SDS011;9729;52.296;13.260;2023-12-20T04:26:11;11.13;;;5.70;;
19193;SDS011;9729;52.296;13.260;2023-12-20T04:28:37;9.07;;;5.97;;
19193;SDS011;9729;52.296;13.260;2023-12-20T04:31:03;10.93;;;5.90;;
19193;SDS011;9729;52.296;13.260;2023-12-20T04:33:30;10.50;;;5.63;;
19193;SDS011;9729;52.296;13.260;2023-12-20T04:35:56;14.40;;;5.90;;
19193;SDS011;9729;52.296;13.260;2023-12-20T04:38:24;7.73;;;5.27;;
19193;SDS011;9729;52.296;13.260;2023-12-20T04:40:50;8.90;;;4.83;;
19193;SDS011;9729;52.296;13.260;2023-12-20T04:43:16;7.50;;;4.53;;
19193;SDS011;9729;52.296;13.260;2023-12-20T04:45:43;11.67;;;5.07;;
19193;SDS011;9729;52.296;13.260;2023-12-20T04:48:09;15.43;;;5.50;;
19193;SDS011;9729;52.296;13.260;2023-12-20T04:50:35;13.53;;;6.00;;
19193;SDS011;9729;52.296;13.260;2023-12-20T04:53:02;14.10;;;5.70;;
19193;SDS011;9729;52.296;13.260;2023-12-20T04:55:29;12.37;;;5.77;;
19193;SDS011;9729;52.296;13.260;2023-12-20T04:57:56;14.27;;;6.20;;
19193;SDS011;9729;52.296;13.260;2023-12-20T05:00:22;10.63;;;6.43;;
19193;SDS011;9729;52.296;13.260;2023-12-20T05:02:48;9.87;;;5.13;;
19193;SDS011;9729;52.296;13.260;2023-12-20T05:05:15;5.60;;;5.10;;
19193;SDS011;9729;52.296;13.260;2023-12-20T05:07:42;10.00;;;5.20;;
19193;SDS011;9729;52.296;13.260;2023-12-20T05:10:09;10.20;;;6.37;;
19193;SDS011;9729;52.296;13.260;2023-12-20T05:12:37;7.27;;;4.87;;
19193;SDS011;9729;52.296;13.260;2023-12-20T05:15:04;9.37;;;5.23;;
19193;SDS011;9729;52.296;13.260;2023-12-20T05:17:31;13.70;;;6.10;;
19193;SDS011;9729;52.296;13.260;2023-12-20T05:19:58;20.83;;;5.17;;
19193;SDS011;9729;52.296;13.260;2023-12-20T05:22:24;20.33;;;6.30;;
19193;SDS011;9729;52.296;13.260;2023-12-20T05:24:52;14.00;;;5.67;;
19193;SDS011;9729;52.296;13.260;2023-12-20T05:27:18;16.13;;;4.63;;
19193;SDS011;9729;52.296;13.260;2023-12-20T05:29:46;17.63;;;5.10;;
19193;SDS011;9729;52.296;13.260;2023-12-20T05:32:12;18.07;;;5.03;;
19193;SDS011;9729;52.296;13.260;2023-12-20T05:34:39;21.50;;;5.20;;
19193;SDS011;9729;52.296;13.260;2023-12-20T05:37:05;15.57;;;7.57;;
19193;SDS011;9729;52.296;13.260;2023-12-20T05:39:31;15.90;;;5.23;;
19193;SDS011;9729;52.296;13.260;2023-12-20T05:41:58;16.17;;;4.83;;
19193;SDS011;9729;52.296;13.260;2023-12-20T05:44:24;10.10;;;5.10;;
19193;SDS011;9729;52.296;13.260;2023-12-20T05:46:52;14.97;;;5.60;;
19193;SDS011;9729;52.296;13.260;2023-12-20T05:49:19;12.43;;;5.67;;
19193;SDS011;9729;52.296;13.260;2023-12-20T05:51:46;14.30;;;5.53;;
19193;SDS011;9729;52.296;13.260;2023-12-20T05:54:13;22.23;;;7.37;;
19193;SDS011;9729;52.296;13.260;2023-12-20T05:56:39;12.77;;;4.97;;
19193;SDS011;9729;52.296;13.260;2023-12-20T05:59:06;12.17;;;5.60;;
19193;SDS011;9729;52.296;13.260;2023-12-20T06:01:32;15.37;;;5.13;;
19193;SDS011;9729;52.296;13.260;2023-12-20T06:04:00;21.43;;;5.20;;
19193;SDS011;9729;52.296;13.260;2023-12-20T06:06:26;12.33;;;5.27;;
19193;SDS011;9729;52.296;13.260;2023-12-20T06:08:52;11.67;;;6.17;;
19193;SDS011;9729;52.296;13.260;2023-12-20T06:11:18;19.33;;;6.20;;
19193;SDS011;9729;52.296;13.260;2023-12-20T06:13:45;15.07;;;6.03;;
19193;SDS011;9729;52.296;13.260;2023-12-20T06:16:11;12.77;;;6.10;;
19193;SDS011;9729;52.296;13.260;2023-12-20T06:18:37;15.97;;;5.93;;
19193;SDS011;9729;52.296;13.260;2023-12-20T06:21:05;13.67;;;6.70;;
19193;SDS011;9729;52.296;13.260;2023-12-20T06:23:32;14.43;;;6.40;;
19193;SDS011;9729;52.296;13.260;2023-12-20T06:25:59;18.30;;;6.47;;
19193;SDS011;9729;52.296;13.260;2023-12-20T06:28:25;21.87;;;7.03;;
19193;SDS011;9729;52.296;13.260;2023-12-20T06:30:51;14.47;;;6.50;;
19193;SDS011;9729;52.296;13.260;2023-12-20T06:33:19;13.17;;;6.27;;
19193;SDS011;9729;52.296;13.260;2023-12-20T06:35:46;19.00;;;6.33;;
19193;SDS011;9729;52.296;13.260;2023-12-20T06:38:14;16.43;;;6.60;;
19193;SDS011;9729;52.296;13.260;2023-12-20T06:40:40;10.10;;;5.57;;
19193;SDS011;9729;52.296;13.260;2023-12-20T06:43:07;15.20;;;6.60;;
19193;SDS011;9729;52.296;13.260;2023-12-20T06:45:34;14.73;;;6.30;;
19193;SDS011;9729;52.296;13.260;2023-12-20T06:48:00;11.50;;;5.43;;
19193;SDS011;9729;52.296;13.260;2023-12-20T06:50:26;14.53;;;5.30;;
19193;SDS011;9729;52.296;13.260;2023-12-20T06:52:53;15.90;;;5.40;;
19193;SDS011;9729;52.296;13.260;2023-12-20T06:55:21;18.00;;;5.53;;
19193;SDS011;9729;52.296;13.260;2023-12-20T06:57:48;14.13;;;5.90;;
19193;SDS011;9729;52.296;13.260;2023-12-20T07:00:14;21.07;;;5.77;;
19193;SDS011;9729;52.296;13.260;2023-12-20T07:02:41;23.73;;;6.37;;
19193;SDS011;9729;52.296;13.260;2023-12-20T07:05:07;19.43;;;6.00;;
19193;SDS011;9729;52.296;13.260;2023-12-20T07:07:34;14.97;;;5.47;;
19193;SDS011;9729;52.296;13.260;2023-12-20T07:10:00;24.17;;;5.37;;
19193;SDS011;9729;52.296;13.260;2023-12-20T07:12:28;18.20;;;6.00;;
19193;SDS011;9729;52.296;13.260;2023-12-20T07:14:54;19.40;;;6.67;;
19193;SDS011;9729;52.296;13.260;2023-12-20T07:17:21;20.10;;;5.63;;
19193;SDS011;9729;52.296;13.260;2023-12-20T07:19:47;15.67;;;5.37;;
19193;SDS011;9729;52.296;13.260;2023-12-20T07:22:14;19.70;;;6.20;;
19193;SDS011;9729;52.296;13.260;2023-12-20T07:24:40;15.67;;;6.03;;
19193;SDS011;9729;52.296;13.260;2023-12-20T07:27:06;33.07;;;6.13;;
19193;SDS011;9729;52.296;13.260;2023-12-20T07:29:34;24.63;;;7.27;;
19193;SDS011;9729;52.296;13.260;2023-12-20T07:32:00;18.27;;;5.93;;
19193;SDS011;9729;52.296;13.260;2023-12-20T07:34:27;28.67;;;6.03;;
19193;SDS011;9729;52.296;13.260;2023-12-20T07:36:53;17.90;;;6.20;;
19193;SDS011;9729;52.296;13.260;2023-12-20T07:39:19;18.97;;;5.83;;
19193;SDS011;9729;52.296;13.260;2023-12-20T07:41:46;21.43;;;6.20;;
19193;SDS011;9729;52.296;13.260;2023-12-20T07:44:12;21.77;;;7.37;;
19193;SDS011;9729;52.296;13.260;2023-12-20T07:46:40;14.70;;;4.73;;
19193;SDS011;9729;52.296;13.260;2023-12-20T07:49:06;17.87;;;6.30;;
19193;SDS011;9729;52.296;13.260;2023-12-20T07:51:33;13.80;;;6.83;;
19193;SDS011;9729;52.296;13.260;2023-12-20T07:53:59;19.30;;;6.37;;
19193;SDS011;9729;52.296;13.260;2023-12-20T07:56:26;13.17;;;5.80;;
19193;SDS011;9729;52.296;13.260;2023-12-20T07:58:53;21.50;;;5.90;;
19193;SDS011;9729;52.296;13.260;2023-12-20T08:01:19;14.20;;;5.10;;
19193;SDS011;9729;52.296;13.260;2023-12-20T08:03:47;12.97;;;5.67;;
19193;SDS011;9729;52.296;13.260;2023-12-20T08:06:14;14.37;;;5.37;;
19193;SDS011;9729;52.296;13.260;2023-12-20T08:08:42;10.67;;;5.03;;
19193;SDS011;9729;52.296;13.260;2023-12-20T08:11:08;13.77;;;5.17;;
19193;SDS011;9729;52.296;13.260;2023-12-20T08:13:34;18.17;;;4.47;;
19193;SDS011;9729;52.296;13.260;2023-12-20T08:16:01;12.40;;;5.07;;
19193;SDS011;9729;52.296;13.260;2023-12-20T08:18:28;13.80;;;5.13;;
19193;SDS011;9729;52.296;13.260;2023-12-20T08:20:56;8.27;;;4.60;;
19193;SDS011;9729;52.296;13.260;2023-12-20T08:23:22;20.47;;;4.93;;
19193;SDS011;9729;52.296;13.260;2023-12-20T08:25:48;8.93;;;4.57;;
19193;SDS011;9729;52.296;13.260;2023-12-20T08:28:15;11.83;;;5.10;;
19193;SDS011;9729;52.296;13.260;2023-12-20T08:30:41;16.03;;;5.37;;
19193;SDS011;9729;52.296;13.260;2023-12-20T08:33:07;14.00;;;4.90;;
19193;SDS011;9729;52.296;13.260;2023-12-20T08:35:37;19.07;;;5.20;;
19193;SDS011;9729;52.296;13.260;2023-12-20T08:38:05;9.53;;;4.70;;
19193;SDS011;9729;52.296;13.260;2023-12-20T08:40:31;18.47;;;5.43;;
19193;SDS011;9729;52.296;13.260;2023-12-20T08:42:57;9.60;;;5.17;;
19193;SDS011;9729;52.296;13.260;2023-12-20T08:45:24;8.80;;;4.73;;
19193;SDS011;9729;52.296;13.260;2023-12-20T08:47:50;18.57;;;6.07;;
19193;SDS011;9729;52.296;13.260;2023-12-20T08:50:16;15.30;;;4.90;;
19193;SDS011;9729;52.296;13.260;2023-12-20T08:52:43;14.17;;;5.13;;
19193;SDS011;9729;52.296;13.260;2023-12-20T08:55:10;9.30;;;3.70;;
19193;SDS011;9729;52.296;13.260;2023-12-20T08:57:37;7.30;;;3.93;;
19193;SDS011;9729;52.296;13.260;2023-12-20T09:00:04;12.20;;;5.00;;
19193;SDS011;9729;52.296;13.260;2023-12-20T09:02:32;9.00;;;4.70;;
19193;SDS011;9729;52.296;13.260;2023-12-20T09:05:01;15.80;;;4.80;;
19193;SDS011;9729;52.296;13.260;2023-12-20T09:07:27;8.17;;;3.87;;
19193;SDS011;9729;52.296;13.260;2023-12-20T09:09:55;11.13;;;4.20;;
19193;SDS011;9729;52.296;13.260;2023-12-20T09:12:23;19.10;;;4.60;;
19193;SDS011;9729;52.296;13.260;2023-12-20T09:14:49;9.40;;;4.00;;
19193;SDS011;9729;52.296;13.260;2023-12-20T09:17:16;17.07;;;4.10;;
19193;SDS011;9729;52.296;13.260;2023-12-20T09:19:43;16.03;;;5.47;;
19193;SDS011;9729;52.296;13.260;2023-12-20T09:22:09;11.90;;;4.37;;
19193;SDS011;9729;52.296;13.260;2023-12-20T09:24:36;12.60;;;4.70;;
19193;SDS011;9729;52.296;13.260;2023-12-20T09:27:03;6.90;;;4.13;;
19193;SDS011;9729;52.296;13.260;2023-12-20T09:29:31;14.80;;;6.70;;
19193;SDS011;9729;52.296;13.260;2023-12-20T09:31:58;12.17;;;4.17;;
19193;SDS011;9729;52.296;13.260;2023-12-20T09:34:24;11.67;;;4.23;;
19193;SDS011;9729;52.296;13.260;2023-12-20T09:36:52;10.43;;;4.87;;
19193;SDS011;9729;52.296;13.260;2023-12-20T09:39:19;13.30;;;5.07;;
19193;SDS011;9729;52.296;13.260;2023-12-20T09:41:46;9.30;;;4.57;;
19193;SDS011;9729;52.296;13.260;2023-12-20T09:44:15;10.97;;;4.43;;
19193;SDS011;9729;52.296;13.260;2023-12-20T09:46:44;8.87;;;3.60;;
19193;SDS011;9729;52.296;13.260;2023-12-20T09:49:11;9.93;;;4.63;;
19193;SDS011;9729;52.296;13.260;2023-12-20T09:51:38;11.53;;;4.77;;
19193;SDS011;9729;52.296;13.260;2023-12-20T09:54:05;15.23;;;4.77;;
19193;SDS011;9729;52.296;13.260;2023-12-20T09:56:32;7.37;;;3.30;;
19193;SDS011;9729;52.296;13.260;2023-12-20T09:58:59;13.07;;;3.90;;
19193;SDS011;9729;52.296;13.260;2023-12-20T10:01:25;18.13;;;4.23;;
19193;SDS011;9729;52.296;13.260;2023-12-20T10:03:54;12.07;;;4.47;;
19193;SDS011;9729;52.296;13.260;2023-12-20T10:06:20;15.50;;;4.90;;
19193;SDS011;9729;52.296;13.260;2023-12-20T10:08:47;8.20;;;3.77;;
19193;SDS011;9729;52.296;13.260;2023-12-20T10:11:13;14.73;;;4.87;;
19193;SDS011;9729;52.296;13.260;2023-12-20T10:13:40;10.50;;;4.90;;
19193;SDS011;9729;52.296;13.260;2023-12-20T10:16:07;11.30;;;4.30;;
19193;SDS011;9729;52.296;13.260;2023-12-20T10:18:33;13.13;;;4.90;;
19193;SDS011;9729;52.296;13.260;2023-12-20T10:21:01;16.47;;;4.53;;
19193;SDS011;9729;52.296;13.260;2023-12-20T10:23:28;9.50;;;4.63;;
19193;SDS011;9729;52.296;13.260;2023-12-20T10:25:57;24.73;;;5.20;;
19193;SDS011;9729;52.296;13.260;2023-12-20T10:28:24;15.47;;;5.40;;
19193;SDS011;9729;52.296;13.260;2023-12-20T10:30:52;8.23;;;4.23;;
19193;SDS011;9729;52.296;13.260;2023-12-20T10:33:23;10.73;;;4.30;;
19193;SDS011;9729;52.296;13.260;2023-12-20T10:35:50;12.87;;;5.20;;
19193;SDS011;9729;52.296;13.260;2023-12-20T10:38:17;15.50;;;4.97;;
19193;SDS011;9729;52.296;13.260;2023-12-20T10:40:44;10.67;;;4.43;;
19193;SDS011;9729;52.296;13.260;2023-12-20T10:43:12;14.90;;;6.10;;
19193;SDS011;9729;52.296;13.260;2023-12-20T10:45:38;16.70;;;5.10;;
19193;SDS011;9729;52.296;13.260;2023-12-20T10:48:05;10.50;;;5.20;;
19193;SDS011;9729;52.296;13.260;2023-12-20T10:50:31;14.97;;;4.60;;
19193;SDS011;9729;52.296;13.260;2023-12-20T10:52:58;18.93;;;5.07;;
19193;SDS011;9729;52.296;13.260;2023-12-20T10:55:26;12.17;;;4.60;;
19193;SDS011;9729;52.296;13.260;2023-12-20T10:57:52;12.60;;;6.00;;
19193;SDS011;9729;52.296;13.260;2023-12-20T11:00:21;13.97;;;4.70;;
19193;SDS011;9729;52.296;13.260;2023-12-20T11:02:49;11.80;;;4.10;;
19193;SDS011;9729;52.296;13.260;2023-12-20T11:05:19;16.67;;;4.73;;
19193;SDS011;9729;52.296;13.260;2023-12-20T11:07:52;11.23;;;4.03;;
19193;SDS011;9729;52.296;13.260;2023-12-20T11:10:23;15.63;;;4.60;;
19193;SDS011;9729;52.296;13.260;2023-12-20T11:12:53;15.30;;;5.20;;
19193;SDS011;9729;52.296;13.260;2023-12-20T11:15:22;19.03;;;4.83;;
19193;SDS011;9729;52.296;13.260;2023-12-20T11:17:54;14.37;;;4.30;;
19193;SDS011;9729;52.296;13.260;2023-12-20T11:20:21;13.47;;;4.63;;
19193;SDS011;9729;52.296;13.260;2023-12-20T11:22:52;12.40;;;4.07;;
19193;SDS011;9729;52.296;13.260;2023-12-20T11:25:19;15.17;;;4.13;;
19193;SDS011;9729;52.296;13.260;2023-12-20T11:28:06;10.57;;;4.87;;
19193;SDS011;9729;52.296;13.260;2023-12-20T11:30:41;16.17;;;4.90;;
19193;SDS011;9729;52.296;13.260;2023-12-20T11:33:09;12.20;;;4.77;;
19193;SDS011;9729;52.296;13.260;2023-12-20T11:35:35;8.43;;;4.10;;
19193;SDS011;9729;52.296;13.260;2023-12-20T11:38:02;6.40;;;4.73;;
19193;SDS011;9729;52.296;13.260;2023-12-20T11:40:29;11.67;;;3.90;;
19193;SDS011;9729;52.296;13.260;2023-12-20T11:43:00;8.67;;;4.63;;
19193;SDS011;9729;52.296;13.260;2023-12-20T11:45:27;9.57;;;4.20;;
19193;SDS011;9729;52.296;13.260;2023-12-20T11:47:53;9.70;;;4.70;;
19193;SDS011;9729;52.296;13.260;2023-12-20T11:50:20;11.23;;;5.37;;
19193;SDS011;9729;52.296;13.260;2023-12-20T11:52:47;16.03;;;5.37;;
19193;SDS011;9729;52.296;13.260;2023-12-20T11:55:14;9.87;;;4.13;;
19193;SDS011;9729;52.296;13.260;2023-12-20T11:57:41;10.97;;;4.67;;
19193;SDS011;9729;52.296;13.260;2023-12-20T12:00:09;12.67;;;3.93;;
19193;SDS011;9729;52.296;13.260;2023-12-20T12:02:36;9.80;;;4.90;;
19193;SDS011;9729;52.296;13.260;2023-12-20T12:05:03;8.47;;;4.87;;
19193;SDS011;9729;52.296;13.260;2023-12-20T12:07:31;18.70;;;4.50;;
19193;SDS011;9729;52.296;13.260;2023-12-20T12:09:57;8.60;;;4.50;;
19193;SDS011;9729;52.296;13.260;2023-12-20T12:12:23;6.37;;;3.93;;
19193;SDS011;9729;52.296;13.260;2023-12-20T12:14:52;7.30;;;4.07;;
19193;SDS011;9729;52.296;13.260;2023-12-20T12:17:20;10.87;;;4.57;;
19193;SDS011;9729;52.296;13.260;2023-12-20T12:19:46;6.13;;;4.00;;
19193;SDS011;9729;52.296;13.260;2023-12-20T12:22:13;14.00;;;4.90;;
19193;SDS011;9729;52.296;13.260;2023-12-20T12:24:40;7.63;;;4.00;;
19193;SDS011;9729;52.296;13.260;2023-12-20T12:27:07;8.83;;;3.93;;
19193;SDS011;9729;52.296;13.260;2023-12-20T12:29:33;10.67;;;4.80;;
19193;SDS011;9729;52.296;13.260;2023-12-20T12:32:00;13.23;;;4.77;;
19193;SDS011;9729;52.296;13.260;2023-12-20T12:34:28;11.70;;;4.20;;
19193;SDS011;9729;52.296;13.260;2023-12-20T12:36:54;12.83;;;4.03;;
19193;SDS011;9729;52.296;13.260;2023-12-20T12:39:21;10.57;;;4.30;;
19193;SDS011;9729;52.296;13.260;2023-12-20T12:41:49;10.87;;;4.93;;
19193;SDS011;9729;52.296;13.260;2023-12-20T12:44:16;15.60;;;5.20;;
19193;SDS011;9729;52.296;13.260;2023-12-20T12:46:42;9.77;;;4.90;;
19193;SDS011;9729;52.296;13.260;2023-12-20T12:49:09;9.93;;;4.90;;
19193;SDS011;9729;52.296;13.260;2023-12-20T12:51:36;10.23;;;4.00;;
19193;SDS011;9729;52.296;13.260;2023-12-20T12:54:03;9.43;;;5.63;;
19193;SDS011;9729;52.296;13.260;2023-12-20T12:56:30;7.20;;;4.00;;
19193;SDS011;9729;52.296;13.260;2023-12-20T12:58:56;10.10;;;4.70;;
19193;SDS011;9729;52.296;13.260;2023-12-20T13:01:23;6.57;;;3.87;;
19193;SDS011;9729;52.296;13.260;2023-12-20T13:03:49;9.57;;;4.50;;
19193;SDS011;9729;52.296;13.260;2023-12-20T13:06:15;9.37;;;4.37;;
19193;SDS011;9729;52.296;13.260;2023-12-20T13:08:43;8.40;;;4.97;;
19193;SDS011;9729;52.296;13.260;2023-12-20T13:11:10;11.10;;;4.30;;
19193;SDS011;9729;52.296;13.260;2023-12-20T13:13:36;17.97;;;5.00;;
19193;SDS011;9729;52.296;13.260;2023-12-20T13:16:03;11.10;;;5.20;;
19193;SDS011;9729;52.296;13.260;2023-12-20T13:18:30;7.97;;;4.73;;
19193;SDS011;9729;52.296;13.260;2023-12-20T13:20:56;19.80;;;5.97;;
19193;SDS011;9729;52.296;13.260;2023-12-20T13:23:22;13.10;;;4.90;;
19193;SDS011;9729;52.296;13.260;2023-12-20T13:25:50;13.93;;;6.10;;
19193;SDS011;9729;52.296;13.260;2023-12-20T13:28:16;10.70;;;5.20;;
19193;SDS011;9729;52.296;13.260;2023-12-20T13:30:43;12.93;;;5.17;;
19193;SDS011;9729;52.296;13.260;2023-12-20T13:33:09;12.90;;;5.70;;
19193;SDS011;9729;52.296;13.260;2023-12-20T13:35:37;12.33;;;5.00;;
19193;SDS011;9729;52.296;13.260;2023-12-20T13:38:04;10.90;;;5.20;;
19193;SDS011;9729;52.296;13.260;2023-12-20T13:40:30;8.87;;;5.00;;
19193;SDS011;9729;52.296;13.260;2023-12-20T13:42:58;11.23;;;5.50;;
19193;SDS011;9729;52.296;13.260;2023-12-20T13:45:24;6.03;;;4.60;;
19193;SDS011;9729;52.296;13.260;2023-12-20T13:47:51;7.93;;;4.30;;
19193;SDS011;9729;52.296;13.260;2023-12-20T13:50:17;6.23;;;4.00;;
19193;SDS011;9729;52.296;13.260;2023-12-20T13:52:44;4.80;;;4.30;;
19193;SDS011;9729;52.296;13.260;2023-12-20T13:55:11;6.80;;;4.23;;
19193;SDS011;9729;52.296;13.260;2023-12-20T13:57:37;3.90;;;3.60;;
19193;SDS011;9729;52.296;13.260;2023-12-20T14:00:06;4.57;;;4.23;;
19193;SDS011;9729;52.296;13.260;2023-12-20T14:02:39;5.07;;;4.67;;
19193;SDS011;9729;52.296;13.260;2023-12-20T14:05:06;4.90;;;4.00;;
19193;SDS011;9729;52.296;13.260;2023-12-20T14:07:32;5.80;;;4.20;;
19193;SDS011;9729;52.296;13.260;2023-12-20T14:09:59;4.10;;;3.80;;
19193;SDS011;9729;52.296;13.260;2023-12-20T14:12:25;3.90;;;3.60;;
19193;SDS011;9729;52.296;13.260;2023-12-20T14:14:51;3.70;;;3.50;;
19193;SDS011;9729;52.296;13.260;2023-12-20T14:17:21;5.20;;;4.00;;
19193;SDS011;9729;52.296;13.260;2023-12-20T14:19:47;3.97;;;3.67;;
19193;SDS011;9729;52.296;13.260;2023-12-20T14:22:14;4.10;;;3.80;;
19193;SDS011;9729;52.296;13.260;2023-12-20T14:24:41;5.50;;;4.20;;
19193;SDS011;9729;52.296;13.260;2023-12-20T14:27:08;5.33;;;4.13;;
19193;SDS011;9729;52.296;13.260;2023-12-20T14:29:35;4.63;;;3.83;;
19193;SDS011;9729;52.296;13.260;2023-12-20T14:32:02;4.63;;;4.23;;
19193;SDS011;9729;52.296;13.260;2023-12-20T14:34:31;4.87;;;4.40;;